Time;durP1;ratioP1;P1;durP2;ratioP2;P2;SDS_P1;SDS_P2;PMS_P1;PMS_P2;Temp;Humidity;BMP_temperature;BMP_pressure;BME280_temperature;BME280_humidity;BME280_pressure;Samples;Min_cycle;Max_cycle;Signal;HPM_P1;HPM_P2
2023/08/17 00:00:30;;;;;;;5.70;2.65;;;18.70;99.90;;;;;;5062808;28;20216;-89
2023/08/17 00:03:16;;;;;;;3.47;2.58;;;18.60;99.90;;;;;;5052345;28;20205;-91
2023/08/17 00:05:49;;;;;;;6.68;2.88;;;18.60;99.90;;;;;;5042613;28;20319;-89
2023/08/17 00:08:28;;;;;;;5.10;3.03;;;18.60;99.90;;;;;;5076062;28;20193;-90
2023/08/17 00:11:03;;;;;;;5.72;3.00;;;18.50;99.90;;;;;;5042194;28;20201;-91
2023/08/17 00:13:41;;;;;;;4.60;2.83;;;18.50;99.90;;;;;;5045080;28;20561;-90
2023/08/17 00:16:13;;;;;;;4.65;3.10;;;18.50;99.90;;;;;;5062964;28;20216;-91
2023/08/17 00:18:48;;;;;;;4.43;2.90;;;18.50;99.90;;;;;;5076157;28;20235;-89
2023/08/17 00:21:31;;;;;;;3.85;3.10;;;18.40;99.90;;;;;;5070590;28;20245;-91
2023/08/17 00:24:09;;;;;;;3.38;2.60;;;18.40;99.90;;;;;;5055711;28;20275;-90
2023/08/17 00:26:51;;;;;;;5.38;2.80;;;18.40;99.90;;;;;;5043608;28;20261;-90
2023/08/17 00:29:25;;;;;;;7.25;3.30;;;18.40;99.90;;;;;;5043649;28;20217;-89
2023/08/17 00:31:52;;;;;;;5.45;2.80;;;18.30;99.90;;;;;;5061687;28;20224;-91
2023/08/17 00:34:20;;;;;;;7.80;3.15;;;18.30;99.90;;;;;;5061788;28;20201;-91
2023/08/17 00:36:47;;;;;;;5.90;3.05;;;18.20;99.90;;;;;;5062205;28;20192;-90
2023/08/17 00:39:15;;;;;;;5.57;3.38;;;18.10;99.90;;;;;;5061307;28;20205;-89
2023/08/17 00:41:49;;;;;;;5.70;3.00;;;18.20;99.90;;;;;;5054714;28;20222;-89
2023/08/17 00:44:26;;;;;;;4.97;3.10;;;18.10;99.90;;;;;;5045179;28;20208;-92
2023/08/17 00:46:58;;;;;;;9.15;3.72;;;18.30;99.90;;;;;;5059928;28;20212;-91
2023/08/17 00:49:34;;;;;;;4.03;3.35;;;18.20;99.90;;;;;;5059593;28;20216;-89
2023/08/17 00:52:14;;;;;;;5.13;3.22;;;18.10;99.90;;;;;;5071375;28;20719;-90
2023/08/17 00:54:45;;;;;;;5.50;2.92;;;18.10;99.90;;;;;;5062123;28;20290;-91
2023/08/17 00:57:32;;;;;;;4.57;2.80;;;18.10;99.90;;;;;;5063378;28;20234;-90
2023/08/17 01:00:04;;;;;;;6.15;2.83;;;18.10;99.90;;;;;;5061532;28;20227;-89
2023/08/17 01:02:55;;;;;;;7.82;3.00;;;18.10;99.90;;;;;;5063093;28;20200;-91
2023/08/17 01:05:24;;;;;;;4.28;3.10;;;18.10;99.90;;;;;;5064493;28;20270;-90
2023/08/17 01:07:54;;;;;;;5.07;2.58;;;18.10;99.90;;;;;;5061036;28;20217;-91
2023/08/17 01:10:44;;;;;;;6.40;3.25;;;18.10;99.90;;;;;;5060678;28;20204;-90
2023/08/17 01:13:38;;;;;;;3.70;3.03;;;18.10;99.90;;;;;;5051377;28;20221;-91
2023/08/17 01:16:15;;;;;;;7.78;3.20;;;18.10;99.90;;;;;;5070296;28;20208;-90
2023/08/17 01:18:46;;;;;;;3.75;2.38;;;18.00;99.90;;;;;;5063037;28;20204;-90
2023/08/17 01:21:18;;;;;;;4.68;3.00;;;18.10;99.90;;;;;;5045773;28;20209;-91
2023/08/17 01:23:50;;;;;;;4.32;2.47;;;18.10;99.90;;;;;;5060605;28;20208;-90
2023/08/17 01:26:20;;;;;;;6.75;2.83;;;18.20;99.90;;;;;;5047772;28;20204;-91
2023/08/17 01:28:48;;;;;;;4.68;2.80;;;18.10;99.90;;;;;;5043752;28;20260;-90
2023/08/17 01:31:24;;;;;;;4.10;2.80;;;18.00;99.90;;;;;;5072286;28;20209;-92
2023/08/17 01:34:01;;;;;;;4.00;2.78;;;18.00;99.90;;;;;;5067865;28;20204;-90
2023/08/17 01:36:58;;;;;;;3.55;2.28;;;18.00;99.90;;;;;;5060005;28;20695;-90
2023/08/17 01:39:45;;;;;;;4.32;2.90;;;18.00;99.90;;;;;;5060761;28;20228;-90
2023/08/17 01:42:16;;;;;;;2.75;2.50;;;18.00;99.90;;;;;;5074119;28;20203;-92
2023/08/17 01:44:44;;;;;;;7.68;3.20;;;18.10;99.90;;;;;;5060611;28;20197;-91
2023/08/17 01:47:14;;;;;;;5.25;3.10;;;18.10;99.90;;;;;;5066149;28;20223;-91
2023/08/17 01:49:47;;;;;;;5.18;2.88;;;18.10;99.90;;;;;;5055498;28;20287;-91
2023/08/17 01:52:16;;;;;;;5.90;3.00;;;18.00;99.90;;;;;;5079198;28;20239;-90
2023/08/17 01:54:44;;;;;;;3.85;3.00;;;18.00;99.90;;;;;;5058397;28;20217;-90
2023/08/17 01:57:21;;;;;;;4.50;2.88;;;18.00;99.90;;;;;;5065224;28;20262;-90
2023/08/17 02:00:06;;;;;;;3.28;2.72;;;18.00;99.90;;;;;;5057967;28;20296;-92
2023/08/17 02:02:40;;;;;;;4.28;3.15;;;18.00;99.90;;;;;;5038282;28;20217;-91
2023/08/17 02:05:22;;;;;;;6.03;2.83;;;18.00;99.90;;;;;;5054183;28;20275;-89
2023/08/17 02:07:56;;;;;;;3.45;3.10;;;18.00;99.90;;;;;;5059269;28;20293;-90
2023/08/17 02:10:27;;;;;;;3.50;2.80;;;17.90;99.90;;;;;;5060881;28;20271;-91
2023/08/17 02:12:57;;;;;;;4.38;2.72;;;17.90;99.90;;;;;;5060511;28;20225;-89
2023/08/17 02:15:42;;;;;;;5.88;2.92;;;17.90;99.90;;;;;;5054299;28;20233;-90
2023/08/17 02:18:13;;;;;;;6.75;3.20;;;17.90;99.90;;;;;;5053579;28;20205;-92
2023/08/17 02:20:58;;;;;;;7.75;3.08;;;17.90;99.90;;;;;;5060976;28;20696;-92
2023/08/17 02:23:25;;;;;;;4.18;2.95;;;17.90;99.90;;;;;;5051259;28;20233;-91
2023/08/17 02:25:58;;;;;;;6.38;3.00;;;17.80;99.90;;;;;;5058025;28;20209;-91
2023/08/17 02:28:30;;;;;;;5.32;3.00;;;17.80;99.90;;;;;;5067778;28;20231;-90
2023/08/17 02:31:06;;;;;;;5.80;2.90;;;17.80;99.90;;;;;;5076602;28;20193;-90
2023/08/17 02:33:39;;;;;;;5.20;2.63;;;17.80;99.90;;;;;;5055599;28;20226;-90
2023/08/17 02:36:09;;;;;;;5.22;2.42;;;17.80;99.90;;;;;;5054264;28;20215;-92
2023/08/17 02:38:39;;;;;;;5.20;2.55;;;17.80;99.90;;;;;;5069410;28;20273;-90
2023/08/17 02:41:07;;;;;;;5.35;2.60;;;17.80;99.90;;;;;;5064124;28;20277;-90
2023/08/17 02:43:45;;;;;;;3.05;2.72;;;17.70;99.90;;;;;;5063089;28;20197;-90
2023/08/17 02:46:38;;;;;;;5.80;2.40;;;17.70;99.90;;;;;;5041295;28;20201;-89
2023/08/17 02:49:26;;;;;;;5.10;2.42;;;17.70;99.90;;;;;;5062500;28;20197;-90
2023/08/17 02:52:03;;;;;;;4.70;2.97;;;17.70;99.90;;;;;;5061950;28;20239;-90
2023/08/17 02:54:31;;;;;;;4.18;2.53;;;17.80;99.90;;;;;;5061246;28;20212;-91
2023/08/17 02:56:59;;;;;;;4.88;2.50;;;17.70;99.90;;;;;;5061057;28;20280;-91
2023/08/17 02:59:37;;;;;;;4.20;2.88;;;17.70;99.90;;;;;;5063773;28;20231;-93
2023/08/17 03:02:07;;;;;;;5.32;2.70;;;17.70;99.90;;;;;;5067643;28;20213;-91
2023/08/17 03:04:39;;;;;;;3.55;2.30;;;17.60;99.90;;;;;;5082802;28;20210;-91
2023/08/17 03:07:16;;;;;;;5.35;2.72;;;17.70;99.90;;;;;;5084252;28;20212;-91
2023/08/17 03:09:43;;;;;;;4.40;2.78;;;17.70;99.90;;;;;;5061905;28;20212;-90
2023/08/17 03:12:13;;;;;;;5.70;2.50;;;17.80;99.90;;;;;;5071031;28;20220;-91
2023/08/17 03:14:42;;;;;;;4.65;2.78;;;17.70;99.90;;;;;;5066099;28;20201;-89
2023/08/17 03:17:25;;;;;;;4.30;2.50;;;17.90;99.90;;;;;;5072998;28;20228;-89
2023/08/17 03:20:00;;;;;;;5.00;2.30;;;17.80;99.90;;;;;;5071245;28;20185;-90
2023/08/17 03:22:29;;;;;;;4.63;2.72;;;17.70;99.90;;;;;;5077176;28;20220;-92
2023/08/17 03:24:59;;;;;;;5.68;2.40;;;17.90;99.90;;;;;;5072720;28;20559;-91
2023/08/17 03:27:30;;;;;;;5.93;2.30;;;17.80;99.90;;;;;;5056991;28;20556;-91
2023/08/17 03:30:00;;;;;;;4.95;2.55;;;17.60;99.90;;;;;;5036848;28;20201;-92
2023/08/17 03:32:34;;;;;;;6.97;2.53;;;17.60;99.90;;;;;;5065090;28;20219;-91
2023/08/17 03:35:02;;;;;;;4.78;2.50;;;18.10;99.90;;;;;;5055306;28;20273;-90
2023/08/17 03:37:33;;;;;;;3.83;2.88;;;17.80;99.90;;;;;;5056461;28;20258;-92
2023/08/17 03:40:13;;;;;;;7.00;2.67;;;17.80;99.90;;;;;;5038375;28;20201;-91
2023/08/17 03:45:36;;;;;;;5.70;2.65;;;17.80;99.90;;;;;;5056686;28;20633;-90
2023/08/17 03:48:04;;;;;;;3.75;2.50;;;17.70;99.90;;;;;;5042051;28;20269;-89
2023/08/17 03:50:38;;;;;;;4.78;2.30;;;17.70;99.90;;;;;;5075173;28;20222;-89
2023/08/17 03:53:07;;;;;;;4.05;2.50;;;17.60;99.90;;;;;;5065482;28;20561;-87
2023/08/17 03:55:43;;;;;;;5.22;2.40;;;17.60;99.90;;;;;;5066031;28;20205;-89
2023/08/17 03:58:11;;;;;;;3.08;2.63;;;17.60;99.90;;;;;;5065715;28;20208;-88
2023/08/17 04:00:51;;;;;;;3.65;2.47;;;17.70;99.90;;;;;;5052814;28;20228;-89
2023/08/17 04:03:21;;;;;;;5.05;2.35;;;17.50;99.90;;;;;;5066881;28;20204;-88
2023/08/17 04:05:50;;;;;;;2.50;2.25;;;17.70;99.90;;;;;;5066567;28;20201;-90
2023/08/17 04:08:22;;;;;;;4.82;2.42;;;17.90;99.90;;;;;;5054417;28;20221;-90
2023/08/17 04:10:59;;;;;;;6.25;2.90;;;17.40;99.90;;;;;;5079206;28;20221;-89
2023/08/17 04:13:31;;;;;;;3.03;2.40;;;17.50;99.90;;;;;;5060794;28;20228;-89
2023/08/17 04:16:05;;;;;;;4.45;2.58;;;17.70;99.90;;;;;;5053203;28;20229;-90
2023/08/17 04:18:33;;;;;;;3.47;2.58;;;;;;;;;;5059689;28;20235;-90
2023/08/17 04:21:03;;;;;;;3.42;2.55;;;17.40;99.90;;;;;;5074265;28;20209;-89
2023/08/17 04:23:37;;;;;;;4.35;2.60;;;17.30;99.90;;;;;;5069912;28;20228;-90
2023/08/17 04:26:21;;;;;;;5.13;2.50;;;17.30;99.90;;;;;;5072169;28;20205;-89
2023/08/17 04:28:52;;;;;;;7.05;3.13;;;17.20;99.90;;;;;;5057794;28;20212;-90
2023/08/17 04:31:25;;;;;;;3.97;2.70;;;17.10;99.90;;;;;;5080848;28;20294;-88
2023/08/17 04:34:17;;;;;;;4.72;3.17;;;17.20;99.90;;;;;;5068999;28;20231;-90
2023/08/17 04:37:10;;;;;;;5.57;2.85;;;17.00;99.90;;;;;;5068570;28;20232;-89
2023/08/17 04:39:43;;;;;;;5.30;2.92;;;17.00;99.90;;;;;;5057749;28;20205;-90
2023/08/17 04:42:13;;;;;;;4.18;2.90;;;16.90;99.90;;;;;;5071696;28;20206;-89
2023/08/17 04:44:55;;;;;;;5.70;3.13;;;16.90;99.90;;;;;;5076877;28;20197;-90
2023/08/17 04:47:34;;;;;;;3.72;2.75;;;16.90;99.90;;;;;;5063069;28;20560;-90
2023/08/17 04:50:04;;;;;;;3.45;3.15;;;16.90;99.90;;;;;;5060698;28;20238;-91
2023/08/17 04:52:48;;;;;;;4.45;2.70;;;16.80;99.90;;;;;;5061434;28;20275;-90
2023/08/17 04:55:33;;;;;;;4.55;3.08;;;16.80;99.90;;;;;;5046580;28;20216;-89
2023/08/17 04:58:23;;;;;;;6.53;2.90;;;16.90;99.90;;;;;;5060404;28;20239;-91
2023/08/17 05:00:55;;;;;;;3.17;2.47;;;16.80;99.90;;;;;;5062159;28;20299;-91
2023/08/17 05:03:25;;;;;;;5.40;2.67;;;16.90;99.90;;;;;;5057022;28;20239;-90
2023/08/17 05:06:19;;;;;;;;;;;;;;;;;;;;;
2023/08/17 05:08:58;;;;;;;3.97;2.90;;;16.90;99.90;;;;;;5055629;28;20204;-90
2023/08/17 05:11:42;;;;;;;3.60;2.72;;;16.90;99.90;;;;;;5042896;28;20206;-90
2023/08/17 05:14:13;;;;;;;6.75;3.00;;;16.90;99.90;;;;;;5058663;28;20267;-91
2023/08/17 05:16:44;;;;;;;4.25;2.92;;;16.90;99.90;;;;;;5053932;28;20259;-90
2023/08/17 05:19:13;;;;;;;4.80;2.53;;;17.00;99.90;;;;;;5065934;28;20205;-91
2023/08/17 05:21:45;;;;;;;4.57;2.58;;;17.00;99.90;;;;;;5049439;28;20221;-91
2023/08/17 05:24:16;;;;;;;5.78;3.60;;;17.00;99.90;;;;;;5058933;28;20222;-88
2023/08/17 05:26:49;;;;;;;5.28;2.90;;;17.10;99.90;;;;;;5050717;28;20290;-84
2023/08/17 05:29:16;;;;;;;3.72;2.88;;;17.10;99.90;;;;;;5041721;28;20866;-86
2023/08/17 05:31:46;;;;;;;6.05;3.33;;;17.10;99.90;;;;;;5052244;28;20317;-85
2023/08/17 05:34:13;;;;;;;7.07;3.83;;;17.10;99.90;;;;;;5044511;28;20225;-83
2023/08/17 05:36:41;;;;;;;4.20;2.95;;;17.10;99.90;;;;;;5046997;28;20201;-87
2023/08/17 05:39:11;;;;;;;6.22;3.40;;;17.10;99.90;;;;;;5047683;28;20320;-86
2023/08/17 05:41:40;;;;;;;6.30;2.88;;;17.10;99.90;;;;;;5047361;28;20643;-87
2023/08/17 05:44:11;;;;;;;4.05;2.88;;;17.10;99.90;;;;;;5047853;28;20197;-87
2023/08/17 05:46:38;;;;;;;5.22;3.30;;;17.10;99.90;;;;;;5044106;28;20217;-86
2023/08/17 05:49:05;;;;;;;8.00;3.58;;;17.10;99.90;;;;;;5046941;28;20201;-89
2023/08/17 05:51:34;;;;;;;4.47;3.10;;;17.20;99.90;;;;;;5048013;28;20237;-89
2023/08/17 05:54:02;;;;;;;5.03;3.10;;;17.10;99.90;;;;;;5031090;28;20371;-89
2023/08/17 05:56:31;;;;;;;4.10;3.17;;;17.10;99.90;;;;;;5037550;28;20203;-90
2023/08/17 05:59:00;;;;;;;5.05;3.25;;;17.20;99.90;;;;;;5035413;28;20201;-89
2023/08/17 06:01:29;;;;;;;3.95;3.28;;;17.10;99.90;;;;;;5034502;28;20224;-89
2023/08/17 06:03:56;;;;;;;4.53;3.17;;;17.20;99.90;;;;;;5029643;28;20193;-86
2023/08/17 06:06:26;;;;;;;3.78;2.80;;;17.30;99.90;;;;;;5029590;28;20530;-88
2023/08/17 06:08:54;;;;;;;5.28;3.22;;;17.20;99.90;;;;;;5040347;28;20205;-87
2023/08/17 06:11:21;;;;;;;4.53;3.28;;;17.30;99.90;;;;;;5033462;28;20215;-83
2023/08/17 06:13:48;;;;;;;3.58;3.17;;;17.30;99.90;;;;;;5053408;28;20328;-83
2023/08/17 06:16:16;;;;;;;4.10;3.22;;;17.40;99.90;;;;;;5053563;28;20217;-84
2023/08/17 06:18:46;;;;;;;5.60;3.20;;;17.50;99.90;;;;;;5071694;28;20209;-83
2023/08/17 06:21:13;;;;;;;6.70;3.10;;;17.60;99.90;;;;;;5062802;28;20209;-83
2023/08/17 06:23:42;;;;;;;5.13;3.38;;;17.90;99.90;;;;;;5054602;28;20185;-84
2023/08/17 06:26:09;;;;;;;4.82;3.10;;;17.80;99.90;;;;;;5047596;28;20201;-84
2023/08/17 06:28:37;;;;;;;4.57;3.30;;;18.00;99.90;;;;;;5064744;28;20277;-84
2023/08/17 06:31:03;;;;;;;4.72;2.88;;;18.00;99.90;;;;;;5069555;28;20209;-85
2023/08/17 06:33:30;;;;;;;5.63;2.83;;;18.20;99.90;;;;;;5072926;28;20200;-84
2023/08/17 06:35:59;;;;;;;5.28;2.72;;;18.30;99.90;;;;;;5072050;28;20206;-85
2023/08/17 06:38:26;;;;;;;5.07;3.22;;;18.30;99.90;;;;;;5078597;28;20247;-84
2023/08/17 06:40:54;;;;;;;4.50;3.05;;;18.40;99.90;;;;;;5070123;28;20201;-83
2023/08/17 06:43:24;;;;;;;6.05;3.08;;;18.50;99.90;;;;;;5052727;28;20186;-86
2023/08/17 06:45:51;;;;;;;7.60;3.13;;;18.60;99.90;;;;;;5060593;28;20197;-86
2023/08/17 06:48:18;;;;;;;4.53;3.03;;;18.60;99.90;;;;;;5072862;28;20283;-82
2023/08/17 06:50:45;;;;;;;4.90;3.33;;;18.70;99.90;;;;;;5057580;28;20282;-84
2023/08/17 06:53:14;;;;;;;5.57;3.20;;;18.80;99.90;;;;;;5085919;28;20245;-85
2023/08/17 06:55:42;;;;;;;5.68;3.08;;;18.80;99.90;;;;;;5074774;28;20203;-84
2023/08/17 06:58:14;;;;;;;8.60;3.03;;;18.90;99.90;;;;;;5092191;28;20225;-87
2023/08/17 07:00:45;;;;;;;6.97;3.25;;;18.90;99.90;;;;;;5074133;28;20267;-88
2023/08/17 07:03:21;;;;;;;6.18;2.83;;;19.00;99.90;;;;;;5059501;28;20231;-83
2023/08/17 07:06:09;;;;;;;3.60;2.50;;;18.90;99.90;;;;;;5050761;28;20181;-90
2023/08/17 07:08:36;;;;;;;7.63;3.05;;;19.10;99.90;;;;;;5056445;28;20200;-87
2023/08/17 07:11:09;;;;;;;4.03;2.70;;;19.20;99.90;;;;;;5047886;28;20198;-83
2023/08/17 07:13:36;;;;;;;4.78;2.53;;;19.30;99.90;;;;;;5049620;28;20231;-85
2023/08/17 07:16:03;;;;;;;5.15;2.70;;;19.20;99.90;;;;;;5067688;28;20217;-86
2023/08/17 07:18:30;;;;;;;7.13;3.25;;;19.30;99.90;;;;;;5074222;28;20220;-87
2023/08/17 07:21:00;;;;;;;6.70;2.50;;;19.50;99.90;;;;;;5076305;28;20283;-86
2023/08/17 07:23:28;;;;;;;3.80;2.55;;;19.60;99.90;;;;;;5066725;28;20232;-86
2023/08/17 07:25:56;;;;;;;4.35;2.15;;;19.70;99.90;;;;;;5057442;28;20204;-88
2023/08/17 07:28:26;;;;;;;4.90;2.30;;;19.80;99.90;;;;;;5054826;28;20269;-87
2023/08/17 07:30:55;;;;;;;4.15;2.30;;;20.00;99.90;;;;;;5054363;28;20226;-89
2023/08/17 07:33:23;;;;;;;5.00;2.70;;;20.20;99.90;;;;;;5051928;28;20231;-90
2023/08/17 07:35:53;;;;;;;3.90;2.45;;;20.30;99.90;;;;;;5067785;28;20199;-87
2023/08/17 07:38:20;;;;;;;2.58;1.90;;;20.30;99.90;;;;;;5053604;28;20205;-87
2023/08/17 07:40:49;;;;;;;7.43;2.30;;;20.40;99.90;;;;;;5065773;28;20238;-86
2023/08/17 07:43:17;;;;;;;3.20;2.15;;;20.40;99.90;;;;;;5060477;28;20196;-84
2023/08/17 07:45:44;;;;;;;3.50;2.33;;;20.40;99.90;;;;;;5063723;28;20217;-84
2023/08/17 07:48:17;;;;;;;5.88;2.75;;;20.30;99.90;;;;;;5067636;28;20208;-84
2023/08/17 07:50:52;;;;;;;5.72;2.40;;;20.20;99.90;;;;;;5063328;28;20208;-82
2023/08/17 07:53:20;;;;;;;4.53;2.47;;;20.20;99.90;;;;;;5059525;28;20695;-83
2023/08/17 07:55:46;;;;;;;4.20;2.63;;;20.10;99.90;;;;;;5065594;28;20290;-83
2023/08/17 07:58:16;;;;;;;4.68;2.35;;;20.10;99.90;;;;;;5064385;28;20205;-83
2023/08/17 08:00:42;;;;;;;5.75;2.38;;;20.10;99.90;;;;;;5046899;28;20329;-82
2023/08/17 08:03:10;;;;;;;4.53;2.20;;;20.10;99.90;;;;;;5045666;28;20637;-84
2023/08/17 08:05:39;;;;;;;4.40;2.67;;;20.00;99.90;;;;;;5064996;28;20281;-83
2023/08/17 08:08:08;;;;;;;3.90;2.33;;;20.10;99.90;;;;;;5064652;28;20560;-83
2023/08/17 08:10:35;;;;;;;4.20;2.40;;;20.10;99.90;;;;;;5071926;28;21112;-83
2023/08/17 08:13:03;;;;;;;4.03;2.10;;;20.10;99.90;;;;;;5055209;28;20200;-82
2023/08/17 08:15:30;;;;;;;5.85;2.60;;;20.10;99.90;;;;;;5057200;28;20232;-83
2023/08/17 08:17:57;;;;;;;3.92;2.40;;;20.20;99.90;;;;;;5067439;28;20208;-83
2023/08/17 08:20:24;;;;;;;5.15;3.10;;;20.30;99.90;;;;;;5061015;28;20200;-84
2023/08/17 08:22:51;;;;;;;5.07;2.45;;;20.20;99.90;;;;;;5045846;28;20312;-83
2023/08/17 08:25:20;;;;;;;3.97;2.10;;;20.40;99.90;;;;;;5068615;28;20243;-82
2023/08/17 08:27:47;;;;;;;2.95;1.95;;;20.40;99.90;;;;;;5047638;28;20246;-84
2023/08/17 08:30:14;;;;;;;4.95;2.88;;;20.40;99.90;;;;;;5066522;28;20583;-82
2023/08/17 08:32:41;;;;;;;4.10;2.33;;;20.50;99.90;;;;;;5045658;28;20228;-82
2023/08/17 08:35:09;;;;;;;8.43;2.50;;;20.40;99.90;;;;;;5050943;28;20250;-83
2023/08/17 08:37:36;;;;;;;3.35;2.08;;;20.50;99.90;;;;;;5071054;28;20204;-81
2023/08/17 08:40:11;;;;;;;4.07;2.30;;;20.60;99.90;;;;;;5064158;28;20201;-83
2023/08/17 08:42:38;;;;;;;3.83;2.17;;;20.60;99.90;;;;;;5072329;28;20197;-81
2023/08/17 08:45:09;;;;;;;3.75;2.15;;;20.60;99.90;;;;;;5051159;28;20311;-86
2023/08/17 08:47:41;;;;;;;3.17;2.40;;;20.60;99.90;;;;;;5068774;28;20201;-83
2023/08/17 08:50:21;;;;;;;2.83;2.20;;;20.60;99.90;;;;;;5056684;28;20201;-84
2023/08/17 08:53:03;;;;;;;5.85;2.72;;;20.50;99.90;;;;;;5055991;28;20232;-81
2023/08/17 08:55:36;;;;;;;4.88;2.30;;;20.60;99.90;;;;;;5073063;28;20314;-83
2023/08/17 08:58:07;;;;;;;5.18;2.20;;;20.60;99.90;;;;;;5063475;28;20620;-81
2023/08/17 09:00:37;;;;;;;5.53;2.47;;;20.60;99.90;;;;;;5049831;28;20664;-82
2023/08/17 09:03:04;;;;;;;4.97;2.58;;;20.60;99.90;;;;;;5048748;28;20224;-83
2023/08/17 09:05:34;;;;;;;4.40;2.42;;;20.60;99.90;;;;;;5051047;28;20636;-81
2023/08/17 09:08:03;;;;;;;7.85;3.33;;;20.70;99.90;;;;;;5058347;28;21000;-82
2023/08/17 09:10:31;;;;;;;4.43;2.95;;;20.80;99.90;;;;;;5051170;28;20299;-82
2023/08/17 09:13:03;;;;;;;9.73;3.13;;;20.80;99.90;;;;;;5070524;28;20207;-83
2023/08/17 09:15:30;;;;;;;8.43;3.58;;;20.80;99.90;;;;;;5049171;28;20314;-82
2023/08/17 09:17:58;;;;;;;9.80;3.72;;;20.80;99.90;;;;;;5072393;28;20572;-82
2023/08/17 09:20:47;;;;;;;6.35;3.40;;;20.80;99.90;;;;;;5066610;28;21111;-81
2023/08/17 09:23:19;;;;;;;6.43;2.85;;;20.90;99.90;;;;;;5065238;28;20911;-82
2023/08/17 09:25:47;;;;;;;7.88;3.05;;;20.80;99.90;;;;;;5049956;28;20200;-82
2023/08/17 09:28:16;;;;;;;7.32;3.25;;;20.90;99.90;;;;;;5063386;28;20280;-80
2023/08/17 09:30:54;;;;;;;11.15;3.55;;;21.00;99.90;;;;;;5052937;28;20217;-82
2023/08/17 09:33:25;;;;;;;6.63;3.03;;;21.00;99.90;;;;;;5061466;28;20208;-82
2023/08/17 09:35:53;;;;;;;6.43;3.47;;;21.00;99.90;;;;;;5046383;28;20209;-82
2023/08/17 09:38:24;;;;;;;6.95;3.42;;;21.00;99.90;;;;;;5057452;28;20220;-83
2023/08/17 09:40:54;;;;;;;8.05;3.47;;;21.00;99.90;;;;;;5068430;28;20197;-82
2023/08/17 09:43:21;;;;;;;6.90;3.40;;;21.10;99.90;;;;;;5049375;28;20199;-82
2023/08/17 09:45:49;;;;;;;6.65;3.22;;;21.00;99.90;;;;;;5065666;28;20218;-81
2023/08/17 09:48:18;;;;;;;7.25;3.17;;;21.00;99.90;;;;;;5052196;28;20258;-81
2023/08/17 09:50:46;;;;;;;6.32;3.00;;;21.00;99.90;;;;;;5048935;28;20200;-82
2023/08/17 09:53:14;;;;;;;6.53;3.13;;;21.10;99.90;;;;;;5034847;28;20221;-82
2023/08/17 09:55:43;;;;;;;6.05;3.20;;;21.10;99.90;;;;;;5051759;28;20228;-82
2023/08/17 09:58:14;;;;;;;6.75;3.10;;;21.20;99.90;;;;;;5043410;28;20205;-84
2023/08/17 10:00:50;;;;;;;6.18;2.70;;;21.20;99.90;;;;;;5042799;28;20209;-82
2023/08/17 10:03:19;;;;;;;7.05;3.03;;;21.30;99.90;;;;;;5046280;28;20239;-82
2023/08/17 10:06:01;;;;;;;6.88;3.08;;;21.30;99.90;;;;;;5018569;28;20282;-83
2023/08/17 10:08:31;;;;;;;5.93;3.28;;;21.30;99.90;;;;;;5052092;28;20205;-82
2023/08/17 10:11:00;;;;;;;7.55;3.03;;;21.30;99.90;;;;;;5027155;28;20202;-83
2023/08/17 10:13:45;;;;;;;4.85;2.65;;;21.30;99.90;;;;;;5026728;28;20217;-82
2023/08/17 10:16:25;;;;;;;8.25;3.22;;;21.30;99.90;;;;;;5051560;28;20209;-83
2023/08/17 10:19:29;;;;;;;11.50;3.50;;;21.20;99.90;;;;;;5029279;28;20867;-82
2023/08/17 10:22:02;;;;;;;6.97;3.25;;;21.10;99.90;;;;;;4995000;28;20221;-83
2023/08/17 10:24:33;;;;;;;7.38;3.55;;;21.00;99.90;;;;;;5050181;28;20209;-82
2023/08/17 10:27:00;;;;;;;6.95;3.10;;;21.10;99.90;;;;;;5042412;28;20621;-83
2023/08/17 10:29:31;;;;;;;5.07;3.03;;;21.20;99.90;;;;;;5044180;28;20197;-83
2023/08/17 10:32:00;;;;;;;7.47;3.55;;;21.30;99.90;;;;;;5042890;28;20220;-83
2023/08/17 10:34:30;;;;;;;6.60;3.33;;;21.40;99.90;;;;;;5044426;28;20325;-82
2023/08/17 10:36:58;;;;;;;7.07;3.38;;;21.30;99.90;;;;;;5049380;28;20190;-84
2023/08/17 10:39:31;;;;;;;6.35;3.60;;;21.30;99.90;;;;;;5045466;28;20201;-88
2023/08/17 10:42:00;;;;;;;5.65;3.10;;;21.40;99.90;;;;;;5021137;28;20225;-85
2023/08/17 10:44:45;;;;;;;5.10;3.17;;;21.40;99.90;;;;;;5028446;28;20284;-85
2023/08/17 10:47:20;;;;;;;8.18;3.25;;;21.40;99.90;;;;;;5049892;28;20217;-87
2023/08/17 10:50:12;;;;;;;6.10;3.40;;;21.40;99.90;;;;;;5045571;28;20717;-87
2023/08/17 10:52:44;;;;;;;5.32;3.08;;;21.50;99.90;;;;;;5045864;28;20263;-87
2023/08/17 10:55:15;;;;;;;5.25;3.28;;;21.50;99.90;;;;;;5053613;28;20258;-87
2023/08/17 10:57:51;;;;;;;6.05;3.03;;;21.50;99.90;;;;;;5060664;28;20287;-87
2023/08/17 11:00:27;;;;;;;5.72;3.22;;;21.40;99.90;;;;;;5065662;28;20192;-86
2023/08/17 11:03:03;;;;;;;5.57;3.35;;;21.60;99.90;;;;;;5064928;28;20627;-86
2023/08/17 11:05:49;;;;;;;4.72;3.40;;;21.60;99.90;;;;;;5062635;28;20268;-86
2023/08/17 11:08:34;;;;;;;5.43;3.47;;;21.60;99.90;;;;;;5066324;28;20278;-86
2023/08/17 11:11:13;;;;;;;6.50;3.38;;;21.60;99.90;;;;;;5048653;28;20223;-88
2023/08/17 11:13:42;;;;;;;5.65;3.50;;;21.40;99.90;;;;;;5063064;28;20200;-86
2023/08/17 11:16:13;;;;;;;5.93;3.30;;;21.50;99.90;;;;;;5049011;28;20331;-87
2023/08/17 11:18:48;;;;;;;6.22;3.80;;;21.60;99.90;;;;;;5052948;28;20204;-85
2023/08/17 11:21:19;;;;;;;4.57;3.40;;;21.50;99.90;;;;;;5048572;28;20209;-88
2023/08/17 11:23:47;;;;;;;5.32;3.33;;;21.50;99.90;;;;;;5047075;28;20639;-86
2023/08/17 11:26:17;;;;;;;9.25;3.67;;;21.60;99.90;;;;;;5049436;28;20639;-87
2023/08/17 11:28:47;;;;;;;6.75;3.92;;;21.60;99.90;;;;;;5049373;28;20216;-85
2023/08/17 11:31:15;;;;;;;5.35;3.50;;;21.70;99.90;;;;;;5048404;28;20235;-85
2023/08/17 11:33:44;;;;;;;5.03;3.67;;;21.80;99.90;;;;;;5062968;28;20205;-87
2023/08/17 11:36:12;;;;;;;3.38;3.00;;;21.90;99.90;;;;;;5041363;28;20699;-90
2023/08/17 11:38:43;;;;;;;4.95;3.08;;;22.00;99.90;;;;;;5045815;28;20200;-85
2023/08/17 11:41:11;;;;;;;4.63;3.22;;;22.10;99.90;;;;;;5049928;28;20284;-86
2023/08/17 11:43:42;;;;;;;4.78;3.55;;;22.10;99.90;;;;;;5069422;28;20213;-90
2023/08/17 11:46:11;;;;;;;6.18;3.03;;;22.10;99.90;;;;;;5060946;28;20220;-87
2023/08/17 11:48:38;;;;;;;7.82;3.72;;;22.10;99.90;;;;;;5051587;28;20204;-86
2023/08/17 11:51:05;;;;;;;4.10;3.70;;;22.20;99.90;;;;;;5063688;28;20199;-87
2023/08/17 11:53:36;;;;;;;5.22;3.40;;;22.20;99.90;;;;;;5044732;28;20312;-89
2023/08/17 11:56:05;;;;;;;9.45;3.45;;;22.20;99.90;;;;;;5044970;28;20224;-87
2023/08/17 11:58:42;;;;;;;6.00;3.33;;;22.30;99.90;;;;;;5053934;28;20216;-88
2023/08/17 12:01:12;;;;;;;3.70;3.30;;;22.30;99.90;;;;;;5051342;28;20219;-86
2023/08/17 12:03:41;;;;;;;5.53;3.90;;;22.40;99.90;;;;;;5050930;28;20271;-89
2023/08/17 12:06:14;;;;;;;6.93;4.55;;;22.40;99.90;;;;;;5050314;28;20211;-90
2023/08/17 12:08:45;;;;;;;6.15;3.28;;;22.40;99.90;;;;;;5046605;28;20297;-88
2023/08/17 12:11:16;;;;;;;5.55;3.47;;;22.40;99.90;;;;;;5041030;28;20844;-86
2023/08/17 12:13:48;;;;;;;5.07;3.42;;;22.70;99.90;;;;;;5051054;28;20566;-87
2023/08/17 12:16:17;;;;;;;5.47;3.63;;;22.90;99.90;;;;;;5044173;28;20228;-90
2023/08/17 12:18:52;;;;;;;7.60;3.85;;;22.70;99.90;;;;;;5056287;28;20228;-88
2023/08/17 12:21:21;;;;;;;5.45;3.60;;;22.70;99.90;;;;;;5067132;28;20193;-90
2023/08/17 12:23:49;;;;;;;6.20;3.40;;;22.70;99.90;;;;;;5052968;28;20221;-92
2023/08/17 12:26:22;;;;;;;6.80;3.85;;;22.70;99.90;;;;;;5055885;28;20236;-90
2023/08/17 12:29:03;;;;;;;6.32;3.80;;;22.70;99.90;;;;;;5057052;28;20204;-92
2023/08/17 12:31:42;;;;;;;4.70;3.22;;;22.50;99.90;;;;;;5056568;28;20228;-92
2023/08/17 12:34:18;;;;;;;5.05;3.20;;;22.50;99.90;;;;;;5060046;28;20564;-95
2023/08/17 12:36:53;;;;;;;4.15;3.40;;;22.50;99.90;;;;;;5058493;28;20557;-94
2023/08/17 12:39:21;;;;;;;4.38;3.70;;;22.50;99.90;;;;;;5054085;28;20198;-88
2023/08/17 12:41:48;;;;;;;6.38;3.40;;;22.40;99.90;;;;;;5053646;28;20592;-89
2023/08/17 12:44:15;;;;;;;4.55;3.60;;;22.40;99.90;;;;;;5058648;28;20207;-91
2023/08/17 12:46:44;;;;;;;6.38;3.70;;;22.40;99.90;;;;;;5059231;28;20222;-87
2023/08/17 12:49:18;;;;;;;4.80;3.92;;;22.40;99.90;;;;;;5070242;28;20212;-90
2023/08/17 12:51:46;;;;;;;5.05;3.95;;;22.70;99.90;;;;;;5065614;28;20219;-90
2023/08/17 12:54:13;;;;;;;4.65;3.58;;;22.20;99.90;;;;;;5052585;28;20209;-93
2023/08/17 12:56:54;;;;;;;4.55;3.40;;;22.20;99.90;;;;;;5054115;28;20203;-93
2023/08/17 12:59:29;;;;;;;4.60;3.58;;;22.20;99.90;;;;;;5055275;28;20208;-96
2023/08/17 13:02:02;;;;;;;4.40;3.60;;;22.20;99.90;;;;;;5046967;28;20204;-89
2023/08/17 13:04:31;;;;;;;5.47;4.18;;;22.20;99.90;;;;;;5027041;28;20221;-89
2023/08/17 13:07:00;;;;;;;5.93;4.13;;;22.20;99.90;;;;;;5045932;28;20205;-93
2023/08/17 13:09:27;;;;;;;6.88;4.72;;;22.20;99.90;;;;;;5037133;28;20239;-87
2023/08/17 13:11:59;;;;;;;6.45;4.63;;;22.30;99.90;;;;;;5028145;28;20250;-88
2023/08/17 13:14:27;;;;;;;6.60;5.28;;;22.30;99.90;;;;;;5037932;28;20207;-87
2023/08/17 13:17:02;;;;;;;5.55;4.72;;;22.30;99.90;;;;;;5048908;28;20251;-88